createdAt,value
2023-09-17T00:01:02.850Z,11.47
2023-09-17T00:03:31.342Z,9.67
2023-09-17T00:05:59.753Z,10.50
2023-09-17T00:08:28.224Z,11.17
2023-09-17T00:10:56.652Z,9.87
2023-09-17T00:13:26.606Z,11.43
2023-09-17T00:15:55.096Z,10.87
2023-09-17T00:18:23.568Z,9.97
2023-09-17T00:20:52.662Z,8.73
2023-09-17T00:23:21.159Z,10.30
2023-09-17T00:25:49.814Z,8.80
2023-09-17T00:28:18.384Z,10.30
2023-09-17T00:30:48.239Z,9.80
2023-09-17T00:33:16.389Z,10.07
2023-09-17T00:35:45.698Z,9.07
2023-09-17T00:38:14.306Z,10.20
2023-09-17T00:40:42.887Z,8.97
2023-09-17T00:43:11.493Z,9.87
2023-09-17T00:45:43.192Z,8.73
2023-09-17T00:48:14.062Z,9.13
2023-09-17T00:50:42.555Z,9.33
2023-09-17T00:53:11.333Z,8.77
2023-09-17T00:55:40.130Z,9.47
2023-09-17T00:58:09.003Z,8.03
2023-09-17T01:00:39.920Z,8.30
2023-09-17T01:03:09.136Z,9.90
2023-09-17T01:05:43.423Z,8.37
2023-09-17T01:08:12.023Z,9.87
2023-09-17T01:10:41.737Z,9.27
2023-09-17T01:13:10.616Z,8.40
2023-09-17T01:15:39.269Z,9.87
2023-09-17T01:18:10.488Z,9.53
2023-09-17T01:20:46.546Z,7.57
2023-09-17T01:23:28.393Z,11.73
2023-09-17T01:26:04.632Z,10.83
2023-09-17T01:28:38.678Z,8.77
2023-09-17T01:31:11.536Z,9.03
2023-09-17T01:33:43.765Z,8.70
2023-09-17T01:36:22.747Z,10.23
2023-09-17T01:38:59.391Z,7.77
2023-09-17T01:41:35.188Z,8.87
2023-09-17T01:44:16.156Z,8.40
2023-09-17T01:46:48.694Z,13.87
2023-09-17T01:49:20.753Z,7.37
2023-09-17T01:51:53.967Z,8.13
2023-09-17T01:54:25.638Z,10.10
2023-09-17T01:56:53.995Z,9.57
2023-09-17T01:59:27.596Z,7.47
2023-09-17T02:02:01.544Z,9.53
2023-09-17T02:04:33.871Z,8.83
2023-09-17T02:07:05.334Z,11.07
2023-09-17T02:09:33.754Z,10.10
2023-09-17T02:12:04.294Z,9.30
2023-09-17T02:14:35.677Z,9.93
2023-09-17T02:17:04.455Z,9.87
2023-09-17T02:19:35.943Z,8.73
2023-09-17T02:22:05.360Z,7.83
2023-09-17T02:24:37.095Z,8.77
2023-09-17T02:27:07.948Z,7.40
2023-09-17T02:29:40.270Z,10.20
2023-09-17T02:32:11.715Z,8.37
2023-09-17T02:34:40.771Z,9.13
2023-09-17T02:37:08.922Z,8.27
2023-09-17T02:39:37.391Z,7.60
2023-09-17T02:42:06.204Z,7.23
2023-09-17T02:44:34.559Z,7.77
2023-09-17T02:47:04.975Z,9.10
2023-09-17T02:49:33.617Z,9.10
2023-09-17T02:52:02.154Z,7.73
2023-09-17T02:54:30.540Z,6.43
2023-09-17T02:56:59.828Z,8.97
2023-09-17T02:59:28.328Z,7.23
2023-09-17T03:01:57.336Z,7.43
2023-09-17T03:04:27.606Z,7.70
2023-09-17T03:06:56.358Z,7.43
2023-09-17T03:09:26.098Z,7.33
2023-09-17T03:11:54.468Z,7.83
2023-09-17T03:14:22.794Z,6.70
2023-09-17T03:16:51.207Z,6.87
2023-09-17T03:19:21.179Z,7.97
2023-09-17T03:21:51.307Z,6.47
2023-09-17T03:24:19.703Z,7.10
2023-09-17T03:26:47.878Z,6.40
2023-09-17T03:29:16.319Z,7.43
2023-09-17T03:31:46.857Z,6.30
2023-09-17T03:34:15.476Z,8.00
2023-09-17T03:36:43.588Z,6.50
2023-09-17T03:39:14.217Z,6.87
2023-09-17T03:41:42.977Z,8.60
2023-09-17T03:44:11.524Z,6.60
2023-09-17T03:46:39.994Z,9.57
2023-09-17T03:49:10.048Z,6.47
2023-09-17T03:51:38.342Z,5.77
2023-09-17T03:54:07.001Z,6.10
2023-09-17T03:56:36.790Z,6.07
2023-09-17T03:59:05.570Z,6.67
2023-09-17T04:01:35.285Z,7.10
2023-09-17T04:04:04.483Z,6.17
2023-09-17T04:06:32.776Z,5.87
2023-09-17T04:09:01.201Z,7.50
2023-09-17T04:11:30.625Z,8.13
2023-09-17T04:14:00.344Z,7.33
2023-09-17T04:16:29.034Z,7.87
2023-09-17T04:18:57.445Z,6.97
2023-09-17T04:21:25.456Z,7.00
2023-09-17T04:23:53.898Z,6.60
2023-09-17T04:26:25.722Z,7.33
2023-09-17T04:28:55.010Z,6.80
2023-09-17T04:31:26.245Z,6.23
2023-09-17T04:33:54.744Z,5.87
2023-09-17T04:36:23.507Z,5.67
2023-09-17T04:38:52.400Z,5.83
2023-09-17T04:41:20.684Z,5.37
2023-09-17T04:43:49.330Z,6.43
2023-09-17T04:46:18.065Z,8.33
2023-09-17T04:48:48.029Z,6.00
2023-09-17T04:51:17.855Z,6.53
2023-09-17T04:53:46.255Z,5.83
2023-09-17T04:56:14.812Z,6.37
2023-09-17T04:58:43.214Z,5.53
2023-09-17T05:01:13.883Z,6.03
2023-09-17T05:03:44.198Z,7.13
2023-09-17T05:06:14.089Z,5.53
2023-09-17T05:08:42.392Z,5.93
2023-09-17T05:11:10.826Z,10.47
2023-09-17T05:13:39.150Z,5.10
2023-09-17T05:16:07.754Z,6.63
2023-09-17T05:18:36.058Z,4.93
2023-09-17T05:21:07.844Z,5.10
2023-09-17T05:23:37.233Z,5.90
2023-09-17T05:26:05.550Z,6.83
2023-09-17T05:28:34.043Z,4.57
2023-09-17T05:31:03.025Z,5.73
2023-09-17T05:33:31.450Z,5.73
2023-09-17T05:36:00.280Z,4.43
2023-09-17T05:38:33.640Z,5.20
2023-09-17T05:41:03.671Z,4.60
2023-09-17T05:43:32.133Z,4.77
2023-09-17T05:46:00.585Z,4.77
2023-09-17T05:48:30.477Z,6.43
2023-09-17T05:51:00.087Z,4.80
2023-09-17T05:53:28.769Z,5.10
2023-09-17T05:55:57.375Z,4.37
2023-09-17T05:58:27.438Z,4.50
2023-09-17T06:00:55.594Z,5.70
2023-09-17T06:03:24.811Z,6.57
2023-09-17T06:05:55.570Z,5.60
2023-09-17T06:08:24.098Z,4.63
2023-09-17T06:10:56.019Z,5.03
2023-09-17T06:13:24.607Z,5.20
2023-09-17T06:15:54.499Z,5.73
2023-09-17T06:18:22.990Z,6.10
2023-09-17T06:20:51.350Z,4.50
2023-09-17T06:23:19.776Z,6.17
2023-09-17T06:25:48.494Z,4.30
2023-09-17T06:28:16.885Z,4.60
2023-09-17T06:30:46.060Z,6.77
2023-09-17T06:33:15.978Z,5.00
2023-09-17T06:35:44.305Z,6.23
2023-09-17T06:38:13.529Z,5.63
2023-09-17T06:40:41.926Z,5.80
2023-09-17T06:43:10.447Z,4.73
2023-09-17T06:45:38.880Z,7.27
2023-09-17T06:48:07.348Z,5.03
2023-09-17T06:50:37.376Z,4.63
2023-09-17T06:53:06.325Z,6.47
2023-09-17T06:55:35.451Z,5.10
2023-09-17T06:58:04.078Z,6.47
2023-09-17T07:00:32.778Z,4.40
2023-09-17T07:03:01.520Z,4.67
2023-09-17T07:05:29.967Z,5.60
2023-09-17T07:08:00.121Z,5.37
2023-09-17T07:10:41.908Z,4.77
2023-09-17T07:13:10.550Z,5.13
2023-09-17T07:15:45.565Z,5.47
2023-09-17T07:18:14.137Z,4.77
2023-09-17T07:20:43.264Z,4.90
2023-09-17T07:23:17.914Z,4.67
2023-09-17T07:25:47.344Z,4.77
2023-09-17T07:28:24.173Z,5.13
2023-09-17T07:31:09.099Z,4.57
2023-09-17T07:33:40.584Z,5.07
2023-09-17T07:36:18.815Z,4.47
2023-09-17T07:39:05.670Z,5.33
2023-09-17T07:41:37.409Z,6.30
2023-09-17T07:44:07.738Z,5.63
2023-09-17T07:46:36.655Z,5.30
2023-09-17T07:49:09.361Z,5.13
2023-09-17T07:51:39.494Z,6.03
2023-09-17T07:54:13.476Z,5.30
2023-09-17T07:56:47.594Z,4.33
2023-09-17T07:59:19.955Z,4.47
2023-09-17T08:04:59.560Z,4.00
2023-09-17T08:07:37.203Z,3.83
2023-09-17T08:10:07.895Z,3.77
2023-09-17T08:12:40.122Z,4.23
2023-09-17T08:15:10.260Z,4.90
2023-09-17T08:17:38.953Z,3.83
2023-09-17T08:20:12.228Z,3.37
2023-09-17T08:22:40.882Z,4.77
2023-09-17T08:25:12.985Z,11.40
2023-09-17T08:27:41.864Z,4.87
2023-09-17T08:30:13.263Z,4.33
2023-09-17T08:32:42.574Z,5.13
2023-09-17T08:35:31.957Z,4.47
2023-09-17T08:38:25.450Z,3.13
2023-09-17T08:40:56.530Z,5.40
2023-09-17T08:43:25.757Z,5.33
2023-09-17T08:45:54.390Z,3.40
2023-09-17T08:48:26.641Z,4.87
2023-09-17T08:51:02.494Z,4.50
2023-09-17T08:53:40.461Z,3.23
2023-09-17T08:56:24.153Z,3.63
2023-09-17T08:58:55.106Z,5.40
2023-09-17T09:01:41.191Z,4.07
2023-09-17T09:04:19.970Z,3.83
2023-09-17T09:06:51.562Z,4.10
2023-09-17T09:09:30.088Z,3.80
2023-09-17T09:12:00.232Z,4.10
2023-09-17T09:14:40.322Z,3.57
2023-09-17T09:17:17.298Z,3.83
2023-09-17T09:19:52.094Z,5.87
2023-09-17T09:22:28.527Z,3.67
2023-09-17T09:25:19.036Z,3.50
2023-09-17T09:28:14.405Z,3.40
2023-09-17T09:30:50.146Z,3.97
2023-09-17T09:33:34.409Z,4.20
2023-09-17T09:36:29.830Z,5.00
2023-09-17T09:39:00.728Z,3.47
2023-09-17T09:41:47.272Z,4.33
2023-09-17T09:44:17.293Z,3.80
2023-09-17T09:46:58.870Z,3.90
2023-09-17T09:49:43.678Z,3.90
2023-09-17T09:52:15.427Z,3.20
2023-09-17T09:54:46.841Z,4.87
2023-09-17T09:57:16.725Z,4.33
2023-09-17T09:59:48.788Z,6.43
2023-09-17T10:02:18.698Z,4.80
2023-09-17T10:04:47.204Z,3.63
2023-09-17T10:07:17.033Z,6.43
2023-09-17T10:09:50.244Z,3.33
2023-09-17T10:12:18.745Z,4.03
2023-09-17T10:14:49.885Z,5.17
2023-09-17T10:17:19.890Z,3.67
2023-09-17T10:19:52.437Z,4.43
2023-09-17T10:22:22.485Z,4.17
2023-09-17T10:24:53.925Z,3.73
2023-09-17T10:27:26.017Z,3.50
2023-09-17T10:29:56.734Z,3.30
2023-09-17T10:32:25.553Z,5.27
2023-09-17T10:34:58.326Z,3.70
2023-09-17T10:37:30.160Z,4.10
2023-09-17T10:39:59.438Z,3.63
2023-09-17T10:45:21.122Z,4.00
2023-09-17T10:47:52.356Z,4.47
2023-09-17T10:50:21.734Z,6.60
2023-09-17T10:52:51.287Z,4.87
2023-09-17T10:55:23.784Z,7.77
2023-09-17T10:57:59.240Z,3.30
2023-09-17T11:00:34.296Z,3.60
2023-09-17T11:03:07.278Z,3.57
2023-09-17T11:05:36.864Z,6.50
2023-09-17T11:08:07.597Z,3.40
2023-09-17T11:10:43.038Z,4.00
2023-09-17T11:13:15.509Z,4.83
2023-09-17T11:15:45.623Z,3.70
2023-09-17T11:18:13.613Z,3.77
2023-09-17T11:21:01.784Z,4.53
2023-09-17T11:23:40.313Z,3.57
2023-09-17T11:26:08.372Z,4.30
2023-09-17T11:28:39.549Z,3.67
2023-09-17T11:31:16.642Z,4.70
2023-09-17T11:33:45.773Z,2.80
2023-09-17T11:36:15.091Z,3.50
2023-09-17T11:38:50.462Z,3.33
2023-09-17T11:41:37.810Z,3.67
2023-09-17T11:44:07.087Z,3.63
2023-09-17T11:46:38.715Z,3.57
2023-09-17T11:49:09.244Z,3.57
2023-09-17T11:51:43.283Z,5.43
2023-09-17T11:54:16.510Z,5.83
2023-09-17T11:56:50.485Z,4.00
2023-09-17T11:59:19.434Z,3.50
2023-09-17T12:01:51.840Z,4.53
2023-09-17T12:04:20.711Z,3.67
2023-09-17T12:06:50.145Z,7.60
2023-09-17T12:09:49.851Z,3.67
2023-09-17T12:12:20.337Z,5.03
2023-09-17T12:14:51.251Z,3.97
2023-09-17T12:17:20.773Z,3.53
2023-09-17T12:20:00.761Z,3.87
2023-09-17T12:22:29.964Z,4.43
2023-09-17T12:25:20.202Z,4.67
2023-09-17T12:27:49.451Z,4.47
2023-09-17T12:30:17.993Z,4.43
2023-09-17T12:32:48.143Z,8.33
2023-09-17T12:35:16.760Z,3.60
2023-09-17T12:37:45.322Z,4.10
2023-09-17T12:40:14.409Z,4.97
2023-09-17T12:42:42.494Z,5.97
2023-09-17T12:45:20.499Z,3.60
2023-09-17T12:47:49.833Z,3.50
2023-09-17T12:50:19.828Z,4.40
2023-09-17T12:52:47.915Z,3.60
2023-09-17T12:55:16.058Z,4.97
2023-09-17T12:57:44.066Z,3.63
2023-09-17T13:00:12.937Z,3.97
2023-09-17T13:02:41.038Z,3.50
2023-09-17T13:05:20.751Z,3.20
2023-09-17T13:07:49.008Z,3.73
2023-09-17T13:10:22.680Z,4.40
2023-09-17T13:12:52.021Z,3.73
2023-09-17T13:15:20.312Z,5.60
2023-09-17T13:17:48.705Z,6.27
2023-09-17T13:20:19.726Z,4.10
2023-09-17T13:22:48.814Z,4.10
2023-09-17T13:25:17.927Z,4.60
2023-09-17T13:27:45.952Z,3.60
2023-09-17T13:30:17.694Z,4.50
2023-09-17T13:32:46.021Z,4.00
2023-09-17T13:35:16.950Z,3.90
2023-09-17T13:37:46.320Z,5.97
2023-09-17T13:40:14.563Z,3.97
2023-09-17T13:42:42.862Z,4.53
2023-09-17T13:45:11.299Z,2.87
2023-09-17T13:47:40.791Z,5.23
2023-09-17T13:50:10.116Z,3.77
2023-09-17T13:52:38.064Z,3.53
2023-09-17T13:55:08.456Z,3.40
2023-09-17T13:57:36.424Z,3.43
2023-09-17T14:00:04.862Z,3.80
2023-09-17T14:02:32.914Z,5.63
2023-09-17T14:05:01.449Z,5.97
2023-09-17T14:07:29.476Z,4.77
2023-09-17T14:09:57.430Z,3.40
2023-09-17T14:12:27.547Z,4.13
2023-09-17T14:14:55.786Z,3.57
2023-09-17T14:17:23.895Z,2.90
2023-09-17T14:19:51.979Z,3.37
2023-09-17T14:22:19.993Z,3.17
2023-09-17T14:24:48.250Z,4.70
2023-09-17T14:27:16.386Z,3.27
2023-09-17T14:29:45.955Z,3.27
2023-09-17T14:32:13.966Z,3.20
2023-09-17T14:34:42.105Z,3.07
2023-09-17T14:37:11.083Z,2.97
2023-09-17T14:39:39.538Z,2.87
2023-09-17T14:42:09.299Z,2.77
2023-09-17T14:44:37.574Z,3.30
2023-09-17T14:47:07.360Z,3.27
2023-09-17T14:49:35.555Z,3.50
2023-09-17T14:52:04.320Z,3.20
2023-09-17T14:54:32.994Z,3.70
2023-09-17T14:57:01.002Z,4.00
2023-09-17T14:59:29.670Z,6.53
2023-09-17T15:02:01.422Z,3.17
2023-09-17T15:04:31.346Z,3.23
2023-09-17T15:06:59.657Z,6.40
2023-09-17T15:09:27.712Z,8.27
2023-09-17T15:11:56.787Z,3.43
2023-09-17T15:14:24.954Z,3.47
2023-09-17T15:16:53.250Z,4.10
2023-09-17T15:19:21.512Z,4.47
2023-09-17T15:21:50.876Z,3.47
2023-09-17T15:24:18.828Z,3.30
2023-09-17T15:26:47.047Z,3.20
2023-09-17T15:29:15.301Z,4.70
2023-09-17T15:31:43.337Z,3.23
2023-09-17T15:34:11.728Z,5.10
2023-09-17T15:36:42.559Z,3.60
2023-09-17T15:39:12.083Z,5.43
2023-09-17T15:41:40.076Z,6.00
2023-09-17T15:44:09.137Z,6.37
2023-09-17T15:46:38.179Z,4.80
2023-09-17T15:49:06.284Z,5.70
2023-09-17T15:51:34.287Z,5.20
2023-09-17T15:54:03.381Z,7.17
2023-09-17T15:56:32.798Z,9.57
2023-09-17T15:59:00.716Z,4.50
2023-09-17T16:01:28.663Z,4.53
2023-09-17T16:03:56.796Z,3.93
2023-09-17T16:06:25.160Z,4.43
2023-09-17T16:08:54.036Z,3.90
2023-09-17T16:11:22.418Z,11.20
2023-09-17T16:13:52.136Z,6.20
2023-09-17T16:16:20.518Z,3.93
2023-09-17T16:18:48.491Z,5.33
2023-09-17T16:21:16.974Z,6.23
2023-09-17T16:23:45.149Z,5.70
2023-09-17T16:26:13.420Z,3.53
2023-09-17T16:28:41.831Z,3.87
2023-09-17T16:31:11.077Z,4.70
2023-09-17T16:33:39.094Z,5.70
2023-09-17T16:36:07.898Z,5.87
2023-09-17T16:38:36.397Z,5.73
2023-09-17T16:41:04.364Z,5.17
2023-09-17T16:43:32.495Z,4.33
2023-09-17T16:46:00.524Z,7.40
2023-09-17T16:48:29.795Z,6.00
2023-09-17T16:50:57.730Z,4.67
2023-09-17T16:53:25.975Z,5.07
2023-09-17T16:55:54.187Z,4.63
2023-09-17T16:58:22.381Z,4.13
2023-09-17T17:00:51.695Z,5.13
2023-09-17T17:03:19.789Z,3.47
2023-09-17T17:05:49.514Z,6.43
2023-09-17T17:08:17.774Z,4.13
2023-09-17T17:10:45.784Z,3.47
2023-09-17T17:13:14.051Z,5.77
2023-09-17T17:15:42.082Z,3.57
2023-09-17T17:18:11.239Z,6.83
2023-09-17T17:20:39.555Z,8.17
2023-09-17T17:23:08.856Z,4.07
2023-09-17T17:25:36.989Z,7.67
2023-09-17T17:28:05.685Z,4.43
2023-09-17T17:30:33.632Z,5.53
2023-09-17T17:33:01.562Z,6.03
2023-09-17T17:35:29.753Z,4.83
2023-09-17T17:37:57.891Z,3.67
2023-09-17T17:40:28.019Z,4.83
2023-09-17T17:42:56.344Z,5.27
2023-09-17T17:45:24.474Z,4.60
2023-09-17T17:47:52.465Z,5.50
2023-09-17T17:50:20.498Z,4.80
2023-09-17T17:52:48.559Z,5.30
2023-09-17T17:55:16.493Z,8.10
2023-09-17T17:57:45.847Z,5.90
2023-09-17T18:00:14.899Z,5.50
2023-09-17T18:02:47.105Z,4.30
2023-09-17T18:05:16.083Z,5.70
2023-09-17T18:07:46.478Z,5.73
2023-09-17T18:10:14.894Z,5.40
2023-09-17T18:12:43.529Z,4.60
2023-09-17T18:15:18.593Z,5.53
2023-09-17T18:17:47.663Z,4.33
2023-09-17T18:20:17.653Z,4.17
2023-09-17T18:22:45.752Z,4.60
2023-09-17T18:25:13.670Z,5.13
2023-09-17T18:27:41.813Z,5.73
2023-09-17T18:30:10.357Z,4.47
2023-09-17T18:32:39.848Z,6.43
2023-09-17T18:35:08.267Z,8.43
2023-09-17T18:37:36.192Z,4.67
2023-09-17T18:40:06.021Z,8.43
2023-09-17T18:42:34.418Z,4.40
2023-09-17T18:45:04.595Z,6.40
2023-09-17T18:47:32.531Z,6.67
2023-09-17T18:50:01.774Z,4.23
2023-09-17T18:52:30.890Z,4.40
2023-09-17T18:55:05.205Z,5.87
2023-09-17T18:57:33.666Z,4.33
2023-09-17T19:00:05.900Z,4.80
2023-09-17T19:02:35.825Z,5.33
2023-09-17T19:05:06.582Z,4.73
2023-09-17T19:07:35.282Z,4.20
2023-09-17T19:10:04.909Z,6.43
2023-09-17T19:12:33.045Z,5.37
2023-09-17T19:15:01.340Z,5.27
2023-09-17T19:17:29.862Z,5.67
2023-09-17T19:19:57.906Z,5.13
2023-09-17T19:22:27.596Z,4.40
2023-09-17T19:24:55.661Z,7.00
2023-09-17T19:27:23.832Z,6.90
2023-09-17T19:29:54.237Z,4.93
2023-09-17T19:32:25.035Z,4.43
2023-09-17T19:34:54.913Z,5.50
2023-09-17T19:37:23.284Z,6.13
2023-09-17T19:39:53.160Z,7.47
2023-09-17T19:42:24.592Z,5.43
2023-09-17T19:44:53.137Z,8.47
2023-09-17T19:47:24.214Z,8.70
2023-09-17T19:49:52.730Z,4.70
2023-09-17T19:52:20.801Z,4.67
2023-09-17T19:54:49.161Z,6.97
2023-09-17T19:57:18.568Z,5.13
2023-09-17T19:59:46.701Z,5.00
2023-09-17T20:02:15.093Z,8.17
2023-09-17T20:04:43.461Z,5.27
2023-09-17T20:07:11.547Z,4.23
2023-09-17T20:09:40.034Z,5.90
2023-09-17T20:12:08.939Z,6.20
2023-09-17T20:14:42.053Z,9.23
2023-09-17T20:17:10.367Z,5.80
2023-09-17T20:19:38.738Z,4.80
2023-09-17T20:22:09.405Z,6.17
2023-09-17T20:24:40.247Z,9.27
2023-09-17T20:27:08.909Z,5.77
2023-09-17T20:29:38.985Z,6.17
2023-09-17T20:32:10.745Z,5.70
2023-09-17T20:34:39.291Z,8.13
2023-09-17T20:37:08.010Z,5.93
2023-09-17T20:39:36.989Z,4.97
2023-09-17T20:42:05.726Z,5.93
2023-09-17T20:44:41.430Z,6.87
2023-09-17T20:47:11.877Z,5.00
2023-09-17T20:49:42.531Z,5.77
2023-09-17T20:52:11.858Z,5.03
2023-09-17T20:54:42.828Z,6.57
2023-09-17T20:57:11.546Z,5.17
2023-09-17T20:59:42.109Z,6.50
2023-09-17T21:02:11.815Z,5.37
2023-09-17T21:04:40.201Z,5.63
2023-09-17T21:07:08.760Z,5.00
2023-09-17T21:09:37.404Z,5.73
2023-09-17T21:12:09.409Z,6.17
2023-09-17T21:14:38.230Z,4.43
2023-09-17T21:17:06.911Z,5.30
2023-09-17T21:19:36.609Z,5.37
2023-09-17T21:22:06.008Z,5.47
2023-09-17T21:24:36.470Z,5.43
2023-09-17T21:27:04.947Z,6.27
2023-09-17T21:29:33.045Z,5.30
2023-09-17T21:32:01.680Z,6.03
2023-09-17T21:34:30.036Z,4.83
2023-09-17T21:36:59.551Z,6.63
2023-09-17T21:39:29.917Z,5.13
2023-09-17T21:41:58.612Z,5.47
2023-09-17T21:44:27.179Z,6.33
2023-09-17T21:46:55.453Z,7.73
2023-09-17T21:49:58.926Z,5.17
2023-09-17T21:52:29.694Z,5.03
2023-09-17T21:54:57.996Z,5.07
2023-09-17T21:57:26.985Z,4.90
2023-09-17T21:59:55.716Z,7.90
2023-09-17T22:02:24.059Z,6.10
2023-09-17T22:04:52.221Z,6.57
2023-09-17T22:07:20.518Z,6.00
2023-09-17T22:09:50.209Z,5.90
2023-09-17T22:12:18.644Z,5.70
2023-09-17T22:14:46.946Z,7.30
2023-09-17T22:17:17.658Z,8.97
2023-09-17T22:19:49.832Z,5.10
2023-09-17T22:22:18.234Z,5.93
2023-09-17T22:24:46.686Z,5.77
2023-09-17T22:27:16.536Z,5.70
2023-09-17T22:29:44.912Z,5.50
2023-09-17T22:32:13.307Z,6.13
2023-09-17T22:34:41.421Z,6.90
2023-09-17T22:37:09.836Z,6.50
2023-09-17T22:39:40.361Z,6.50
2023-09-17T22:42:08.740Z,4.87
2023-09-17T22:44:40.080Z,5.93
2023-09-17T22:47:10.372Z,4.90
2023-09-17T22:49:38.812Z,5.10
2023-09-17T22:52:07.804Z,7.07
2023-09-17T22:54:36.448Z,5.00
2023-09-17T22:57:04.982Z,5.80
2023-09-17T22:59:33.426Z,4.87
2023-09-17T23:02:03.189Z,4.87
2023-09-17T23:04:31.213Z,8.37
2023-09-17T23:06:59.624Z,5.63
2023-09-17T23:09:28.037Z,6.20
2023-09-17T23:11:56.108Z,7.27
2023-09-17T23:14:24.703Z,5.57
2023-09-17T23:16:53.217Z,5.63
2023-09-17T23:19:24.231Z,4.43
2023-09-17T23:21:53.565Z,5.43
2023-09-17T23:24:22.732Z,5.70
2023-09-17T23:26:51.567Z,4.93
2023-09-17T23:29:19.907Z,4.73
2023-09-17T23:31:48.726Z,6.30
2023-09-17T23:34:18.585Z,4.90
2023-09-17T23:36:47.964Z,4.60
2023-09-17T23:39:16.953Z,6.97
2023-09-17T23:41:45.434Z,5.53
2023-09-17T23:44:13.877Z,6.87
2023-09-17T23:46:42.103Z,4.80
2023-09-17T23:49:10.112Z,4.57
2023-09-17T23:51:38.450Z,4.97
2023-09-17T23:54:08.428Z,6.03
2023-09-17T23:56:37.978Z,5.27
2023-09-17T23:59:06.407Z,6.00
